Time;durP1;ratioP1;P1;durP2;ratioP2;P2;SDS_P1;SDS_P2;PMS_P1;PMS_P2;Temp;Humidity;BMP_temperature;BMP_pressure;BME280_temperature;BME280_humidity;BME280_pressure;Samples;Min_cycle;Max_cycle;Signal;HPM_P1;HPM_P2
2021/10/01 00:01:14;;;;;;;;;2.00;2.00;;;;;25.43;36.28;101815.75;5074211;27;45340;-67
2021/10/01 00:03:40;;;;;;;;;3.00;2.33;;;;;25.36;36.43;101805.00;5070453;28;45523;-67
2021/10/01 00:06:06;;;;;;;;;3.00;2.00;;;;;25.45;36.60;101819.09;5074266;27;45518;-68
2021/10/01 00:08:32;;;;;;;;;2.00;2.00;;;;;25.45;36.46;101808.44;5076298;28;45331;-68
2021/10/01 00:10:57;;;;;;;;;3.67;2.00;;;;;25.45;36.41;101808.44;5072725;27;46068;-67
2021/10/01 00:13:24;;;;;;;;;4.00;2.00;;;;;25.45;36.32;101803.09;5073911;27;45421;-67
2021/10/01 00:15:50;;;;;;;;;2.00;1.25;;;;;25.46;36.37;101802.06;5072752;27;45510;-67
2021/10/01 00:18:15;;;;;;;;;2.00;2.00;;;;;25.45;36.43;101798.56;5073577;27;45388;-67
2021/10/01 00:20:40;;;;;;;;;1.50;1.50;;;;;25.45;36.30;101793.25;5075929;27;46144;-67
2021/10/01 00:23:06;;;;;;;;;2.25;2.25;;;;;25.44;36.35;101780.13;5074063;27;45323;-67
2021/10/01 00:25:31;;;;;;;;;2.00;2.00;;;;;25.44;36.32;101780.94;5071071;28;45409;-68
2021/10/01 00:27:57;;;;;;;;;1.75;1.75;;;;;25.43;36.39;101781.94;5074013;28;45543;-67
2021/10/01 00:30:23;;;;;;;;;1.75;1.25;;;;;25.35;36.62;101763.38;5073944;27;46085;-67
2021/10/01 00:32:49;;;;;;;;;1.00;1.00;;;;;25.41;36.36;101773.31;5074880;27;45496;-67
2021/10/01 00:35:14;;;;;;;;;1.75;1.00;;;;;25.41;36.34;101775.97;5073266;28;45330;-67
2021/10/01 00:37:40;;;;;;;;;1.00;1.00;;;;;25.41;36.39;101775.97;5073873;28;45541;-67
2021/10/01 00:40:06;;;;;;;;;2.00;2.00;;;;;25.40;36.27;101768.97;5073803;27;45390;-67
2021/10/01 00:42:32;;;;;;;;;4.00;2.00;;;;;25.36;36.46;101760.53;5071830;27;45480;-67
2021/10/01 00:44:57;;;;;;;;;2.00;1.00;;;;;25.39;36.63;101762.03;5073902;27;45296;-67
2021/10/01 00:47:23;;;;;;;;;2.00;2.00;;;;;25.36;36.59;101760.53;5073224;28;45332;-67
2021/10/01 00:49:49;;;;;;;;;3.00;2.25;;;;;25.38;36.41;101757.69;5073420;27;46156;-67
2021/10/01 00:52:18;;;;;;;;;2.33;1.33;;;;;25.37;36.33;101753.38;5073469;27;45583;-68
2021/10/01 00:54:43;;;;;;;;;1.00;1.00;;;;;25.36;36.50;101751.72;5072356;27;45447;-67
2021/10/01 00:57:09;;;;;;;;;2.50;2.00;;;;;25.35;36.43;101745.56;5072276;28;45382;-67
2021/10/01 00:59:34;;;;;;;;;1.00;1.00;;;;;25.35;36.50;101740.22;5075063;28;45405;-67
2021/10/01 01:01:59;;;;;;;;;2.00;2.00;;;;;25.28;36.27;101723.31;5073124;27;45402;-67
2021/10/01 01:04:25;;;;;;;;;0.33;0.33;;;;;25.35;36.48;101742.06;5073633;27;45789;-67
2021/10/01 01:07:00;;;;;;;;;3.00;2.00;;;;;25.35;36.41;101732.25;5073513;27;45356;-68
2021/10/01 01:09:31;;;;;;;;;2.00;2.00;;;;;25.35;36.44;101726.09;5073419;27;46363;-67
2021/10/01 01:12:08;;;;;;;;;2.00;1.00;;;;;25.35;36.50;101724.25;5072326;28;46167;-67
2021/10/01 01:14:48;;;;;;;;;2.25;1.50;;;;;25.33;36.53;101718.28;5074634;28;45469;-67
2021/10/01 01:17:19;;;;;;;;;1.50;1.50;;;;;25.34;36.50;101713.78;5072283;28;45426;-67
2021/10/01 01:19:59;;;;;;;;;2.00;2.00;;;;;25.34;36.32;101706.63;5072942;27;47108;-67
2021/10/01 01:22:36;;;;;;;;;1.00;1.00;;;;;25.31;36.40;101701.66;5071900;27;45579;-67
2021/10/01 01:25:36;;;;;;;;;2.33;1.33;;;;;25.36;36.22;101706.44;5076654;28;45500;-67
2021/10/01 01:28:29;;;;;;;;;4.25;2.00;;;;;25.35;36.50;101697.63;5076791;27;45275;-68
2021/10/01 01:30:59;;;;;;;;;2.75;1.25;;;;;25.35;36.31;101694.94;5076035;27;46127;-67
2021/10/01 01:33:28;;;;;;;;;1.00;1.00;;;;;25.36;36.28;101701.09;5074765;27;45572;-67
2021/10/01 01:35:58;;;;;;;;;2.25;1.00;;;;;25.35;36.34;101697.63;5077227;28;45335;-67
2021/10/01 01:38:31;;;;;;;;;1.00;1.00;;;;;25.36;36.50;101701.09;5076313;28;45418;-67
2021/10/01 01:41:02;;;;;;;;;1.50;1.50;;;;;25.34;36.38;101684.50;5076144;27;46047;-67
2021/10/01 01:43:29;;;;;;;;;1.25;1.00;;;;;25.35;36.36;101686.13;5076396;27;45343;-67
2021/10/01 01:45:54;;;;;;;;;2.00;1.00;;;;;25.28;36.24;101689.53;5076284;27;45343;-67
2021/10/01 01:48:21;;;;;;;;;1.67;1.00;;;;;25.28;36.09;101686.03;5076505;27;45316;-67
2021/10/01 01:50:48;;;;;;;;;3.00;1.00;;;;;25.35;36.36;101697.63;5077689;27;45402;-67
2021/10/01 01:53:17;;;;;;;;;4.00;2.00;;;;;25.33;36.47;101681.00;5076814;28;45303;-67
2021/10/01 01:55:44;;;;;;;;;2.67;1.33;;;;;25.35;36.02;101683.47;5076378;27;45375;-68
2021/10/01 01:58:10;;;;;;;;;2.00;2.00;;;;;25.33;35.98;101675.66;5076364;28;45743;-67
2021/10/01 02:00:36;;;;;;;;;1.00;1.00;;;;;25.34;36.18;101676.50;5073851;27;45370;-67
2021/10/01 02:03:04;;;;;;;;;1.00;1.00;;;;;25.33;36.23;101673.00;5076274;27;45441;-68
2021/10/01 02:05:31;;;;;;;;;3.00;1.50;;;;;25.21;36.51;101647.84;5077971;28;45355;-67
2021/10/01 02:07:59;;;;;;;;;1.00;1.00;;;;;25.32;36.31;101670.53;5076179;27;45284;-67
2021/10/01 02:10:25;;;;;;;;;0.00;0.00;;;;;25.31;36.58;101659.03;5075772;27;45339;-67
2021/10/01 02:12:55;;;;;;;;;1.25;1.25;;;;;25.23;36.43;101643.97;5074340;28;45393;-67
2021/10/01 02:15:22;;;;;;;;;3.00;1.00;;;;;25.30;36.36;101660.03;5075850;27;45553;-67
2021/10/01 02:17:50;;;;;;;;;2.25;2.25;;;;;25.31;36.41;101653.72;5077336;27;45412;-67
2021/10/01 02:20:16;;;;;;;;;0.00;0.00;;;;;25.32;36.39;101646.56;5076497;28;47165;-67
2021/10/01 02:22:43;;;;;;;;;1.33;1.00;;;;;25.31;36.33;101650.22;5075687;27;45300;-67
2021/10/01 02:28:03;;;;;;;;;1.00;1.00;;;;;25.29;36.38;101642.44;5032495;28;45462;-67
2021/10/01 02:30:31;;;;;;;;;1.50;1.50;;;;;25.21;36.20;101622.03;5032806;28;45474;-68
2021/10/01 02:33:01;;;;;;;;;1.00;1.00;;;;;25.29;36.19;101629.13;5033150;28;45361;-67
2021/10/01 02:35:27;;;;;;;;;2.00;1.00;;;;;25.25;36.53;101622.47;5032447;28;45369;-68
2021/10/01 02:37:52;;;;;;;;;3.00;1.00;;;;;25.25;36.24;101617.16;5032682;28;45335;-67
2021/10/01 02:40:18;;;;;;;;;2.00;2.00;;;;;25.28;36.53;101614.97;5031118;28;46735;-67
2021/10/01 02:42:44;;;;;;;;;1.75;0.75;;;;;25.29;36.46;101610.47;5032670;28;45701;-67
2021/10/01 02:45:10;;;;;;;;;1.00;1.00;;;;;25.27;36.37;101602.66;5032843;28;45469;-67
2021/10/01 02:47:37;;;;;;;;;2.00;1.00;;;;;25.29;36.23;101610.47;5034791;28;45418;-67
2021/10/01 02:50:14;;;;;;;;;1.00;1.00;;;;;25.29;36.11;101611.28;5032396;28;47000;-67
2021/10/01 02:52:45;;;;;;;;;1.75;1.75;;;;;25.29;36.44;101605.94;5016977;28;45445;-67
2021/10/01 02:55:20;;;;;;;;;1.00;1.00;;;;;25.28;36.25;101601.66;5032699;28;45516;-67
2021/10/01 02:57:54;;;;;;;;;1.00;1.00;;;;;25.31;36.23;101610.28;5032293;28;45587;-68
2021/10/01 03:00:20;;;;;;;;;0.33;0.33;;;;;25.29;36.33;101597.97;5016115;28;45622;-67
2021/10/01 03:02:49;;;;;;;;;1.00;1.00;;;;;25.31;36.18;101594.28;5033974;28;45396;-68
2021/10/01 03:05:15;;;;;;;;;1.33;1.00;;;;;25.30;35.88;101593.47;5059406;28;45580;-67
2021/10/01 03:07:43;;;;;;;;;1.33;1.33;;;;;25.26;36.31;101582.38;5075065;27;45354;-67
2021/10/01 03:10:10;;;;;;;;;1.75;1.00;;;;;25.28;36.18;101584.84;5075023;27;46198;-67
2021/10/01 03:12:35;;;;;;;;;1.00;1.00;;;;;25.29;36.03;101586.50;5074769;27;45485;-67
2021/10/01 03:15:03;;;;;;;;;0.67;0.67;;;;;25.29;36.08;101578.50;5075138;27;45340;-67
2021/10/01 03:17:31;;;;;;;;;1.50;1.00;;;;;25.26;36.50;101566.38;5077073;28;45371;-67
2021/10/01 03:19:57;;;;;;;;;1.33;1.00;;;;;25.28;36.32;101569.69;5072927;27;47195;-67
2021/10/01 03:22:27;;;;;;;;;1.67;1.67;;;;;25.25;36.35;101570.06;5074234;27;45525;-67
2021/10/01 03:24:53;;;;;;;;;1.33;0.67;;;;;25.23;36.50;101552.59;5074972;27;45398;-67
2021/10/01 03:27:18;;;;;;;;;0.00;0.00;;;;;25.17;36.44;101547.00;5074368;27;45459;-67
2021/10/01 03:29:44;;;;;;;;;1.00;1.00;;;;;25.28;36.43;101558.19;5076448;27;47016;-67
2021/10/01 03:32:11;;;;;;;;;0.67;0.67;;;;;25.26;36.35;101553.06;5074943;28;45421;-67
2021/10/01 03:34:36;;;;;;;;;0.00;0.00;;;;;25.26;36.35;101549.56;5074955;27;45523;-67
2021/10/01 03:37:02;;;;;;;;;1.00;1.00;;;;;25.25;36.31;101540.75;5074650;27;45410;-67
2021/10/01 03:39:27;;;;;;;;;1.67;1.33;;;;;25.24;36.25;101541.75;5074795;27;46133;-67
2021/10/01 03:41:52;;;;;;;;;0.00;0.00;;;;;25.25;36.26;101538.09;5075095;27;49692;-68
2021/10/01 03:44:18;;;;;;;;;1.00;0.67;;;;;25.21;36.33;101523.50;5075757;28;45239;-67
2021/10/01 03:46:46;;;;;;;;;1.67;1.00;;;;;25.21;36.54;101528.84;5074635;27;45397;-68
2021/10/01 03:49:12;;;;;;;;;2.00;2.00;;;;;25.24;36.27;101533.75;5074431;27;45915;-67
2021/10/01 03:51:37;;;;;;;;;1.00;1.00;;;;;25.24;36.33;101532.97;5074363;27;45564;-67
2021/10/01 03:54:03;;;;;;;;;2.50;1.00;;;;;25.24;36.41;101532.97;5074790;27;45530;-67
2021/10/01 03:56:28;;;;;;;;;3.67;0.00;;;;;25.24;36.58;101522.31;5076217;27;45387;-67
2021/10/01 03:58:53;;;;;;;;;1.00;0.00;;;;;25.24;36.43;101524.97;5072328;27;45283;-67
2021/10/01 04:01:19;;;;;;;;;1.00;1.00;;;;;25.21;36.23;101518.19;5074061;27;45500;-67
2021/10/01 04:03:44;;;;;;;;;1.00;1.00;;;;;25.19;36.42;101517.53;5074580;27;45552;-67
2021/10/01 04:06:10;;;;;;;;;0.33;0.33;;;;;25.23;36.50;101508.16;5074543;27;45421;-68
2021/10/01 04:08:35;;;;;;;;;1.00;1.00;;;;;25.21;36.48;101502.22;5076092;28;46115;-67
2021/10/01 04:11:01;;;;;;;;;1.00;1.00;;;;;25.23;36.34;101507.34;5072031;27;45264;-67
2021/10/01 04:13:27;;;;;;;;;2.50;2.00;;;;;25.23;36.28;101502.84;5074186;27;45349;-67
2021/10/01 04:15:52;;;;;;;;;1.33;1.33;;;;;25.24;36.07;101501.00;5074370;27;45498;-68
2021/10/01 04:18:18;;;;;;;;;1.00;1.00;;;;;25.18;36.33;101484.75;5073980;27;45472;-67
2021/10/01 04:20:45;;;;;;;;;0.67;0.67;;;;;25.24;36.37;101499.16;5075902;27;45434;-67
2021/10/01 04:23:12;;;;;;;;;0.67;0.67;;;;;25.24;36.22;101507.13;5074532;28;45422;-67
2021/10/01 04:25:37;;;;;;;;;0.67;0.00;;;;;25.23;36.38;101494.84;5073579;27;45445;-67
2021/10/01 04:28:10;;;;;;;;;0.00;0.00;;;;;25.25;36.27;101494.66;5073814;27;46187;-67
2021/10/01 04:30:42;;;;;;;;;0.00;0.00;;;;;25.25;36.36;101494.66;5073970;27;45534;-67
2021/10/01 04:33:28;;;;;;;;;1.00;0.00;;;;;25.26;36.35;101494.47;5074132;27;45385;-68
2021/10/01 04:35:54;;;;;;;;;1.00;1.00;;;;;25.25;36.04;101492.00;5072351;28;45348;-67
2021/10/01 04:38:21;;;;;;;;;0.00;0.00;;;;;25.25;36.22;101492.81;5072893;28;46174;-67
2021/10/01 04:40:46;;;;;;;;;1.00;1.00;;;;;25.25;36.11;101490.16;5073533;27;45385;-67
2021/10/01 04:43:12;;;;;;;;;0.00;0.00;;;;;25.25;36.22;101484.84;5072815;28;45686;-67
2021/10/01 04:45:37;;;;;;;;;1.00;1.00;;;;;25.25;36.22;101487.50;5073787;27;45486;-67
2021/10/01 04:48:06;;;;;;;;;2.00;2.00;;;;;25.13;36.39;101479.16;5073869;27;46000;-67
2021/10/01 04:50:32;;;;;;;;;0.67;0.67;;;;;25.25;36.26;101486.66;5074504;28;45380;-68
2021/10/01 04:52:58;;;;;;;;;1.00;1.00;;;;;25.25;36.33;101486.66;5073160;27;45342;-67
2021/10/01 04:55:23;;;;;;;;;0.00;0.00;;;;;25.23;36.32;101494.84;5073765;27;45931;-67
2021/10/01 04:57:50;;;;;;;;;1.00;1.00;;;;;25.25;36.18;101484.00;5074822;27;46927;-67
2021/10/01 05:00:16;;;;;;;;;1.00;1.00;;;;;25.23;36.36;101486.88;5077084;27;45404;-67
2021/10/01 05:02:41;;;;;;;;;1.00;1.00;;;;;25.21;36.41;101477.41;5079053;27;45375;-68
2021/10/01 05:05:07;;;;;;;;;0.67;0.67;;;;;25.21;36.00;101480.06;5077112;27;45315;-67
2021/10/01 05:07:32;;;;;;;;;2.00;0.33;;;;;25.19;36.55;101477.56;5076548;28;45302;-67
2021/10/01 05:09:57;;;;;;;;;1.67;1.00;;;;;25.22;36.51;101476.38;5076933;27;45410;-67
2021/10/01 05:12:23;;;;;;;;;0.00;0.00;;;;;25.21;36.19;101477.41;5077008;27;45316;-67
2021/10/01 05:14:48;;;;;;;;;1.00;1.00;;;;;25.22;36.34;101476.38;5077981;27;45426;-67
2021/10/01 05:17:13;;;;;;;;;1.33;1.00;;;;;25.11;35.89;101456.41;5075947;28;46180;-67
2021/10/01 05:19:39;;;;;;;;;0.00;0.00;;;;;25.21;36.59;101466.75;5076583;27;45344;-67
2021/10/01 05:22:04;;;;;;;;;1.00;1.00;;;;;25.21;36.29;101469.41;5076650;27;45463;-67
2021/10/01 05:24:30;;;;;;;;;1.00;1.00;;;;;25.18;36.04;101463.47;5076902;28;45367;-67
2021/10/01 05:26:57;;;;;;;;;1.00;1.00;;;;;25.12;36.32;101458.88;5077540;28;45996;-67
2021/10/01 05:29:23;;;;;;;;;0.00;0.00;;;;;25.17;36.39;101461.81;5076297;28;45402;-67
2021/10/01 05:31:49;;;;;;;;;0.00;0.00;;;;;25.20;36.54;101462.44;5075228;28;45800;-68
2021/10/01 05:34:16;;;;;;;;;0.00;0.00;;;;;25.18;36.36;101468.78;5076410;28;45580;-67
2021/10/01 05:36:42;;;;;;;;;2.00;1.00;;;;;25.16;36.56;101456.66;5076212;27;47052;-67
2021/10/01 05:39:07;;;;;;;;;1.67;0.33;;;;;25.19;36.29;101458.94;5076402;27;45379;-67
2021/10/01 05:41:33;;;;;;;;;0.00;0.00;;;;;25.18;36.32;101446.66;5078581;28;45477;-67
2021/10/01 05:43:58;;;;;;;;;1.00;0.33;;;;;25.18;36.10;101447.47;5076540;27;45452;-68
2021/10/01 05:46:23;;;;;;;;;3.00;2.00;;;;;25.19;36.14;101456.28;5076327;27;47523;-67
2021/10/01 05:48:56;;;;;;;;;0.00;0.00;;;;;25.20;36.28;101449.94;5076339;27;45400;-66
2021/10/01 05:51:21;;;;;;;;;3.00;1.00;;;;;25.20;36.46;101460.59;5076179;27;45425;-67
2021/10/01 05:53:49;;;;;;;;;0.00;0.00;;;;;25.20;36.13;101446.47;5077548;27;45341;-68
2021/10/01 05:56:16;;;;;;;;;2.25;1.00;;;;;25.12;36.21;101442.06;5075063;28;47018;-67
2021/10/01 05:58:42;;;;;;;;;0.50;0.50;;;;;24.92;36.37;101403.53;5075775;27;45509;-66
2021/10/01 06:01:10;;;;;;;;;0.00;0.00;;;;;25.20;36.10;101459.78;5075849;27;45285;-67
2021/10/01 06:03:35;;;;;;;;;1.00;1.00;;;;;25.20;36.27;101452.63;5076123;28;45471;-67
2021/10/01 06:06:00;;;;;;;;;0.00;0.00;;;;;25.20;36.43;101455.28;5075709;27;45362;-67
2021/10/01 06:08:26;;;;;;;;;0.00;0.00;;;;;25.09;36.27;101427.28;5075568;28;45262;-67
2021/10/01 06:10:52;;;;;;;;;0.00;0.00;;;;;25.21;36.41;101459.59;5075339;27;45380;-67
2021/10/01 06:13:18;;;;;;;;;0.00;0.00;;;;;25.21;36.14;101450.78;5076020;27;45442;-67
2021/10/01 06:15:44;;;;;;;;;0.00;0.00;;;;;25.20;36.36;101452.63;5075925;27;46952;-67
2021/10/01 06:18:10;;;;;;;;;0.75;0.00;;;;;25.21;36.35;101458.78;5076151;27;45364;-67
2021/10/01 06:20:35;;;;;;;;;0.00;0.00;;;;;25.20;36.35;101457.94;5077575;28;45338;-67
2021/10/01 06:23:01;;;;;;;;;0.00;0.00;;;;;25.20;36.34;101457.94;5075805;28;45354;-68
2021/10/01 06:25:26;;;;;;;;;1.00;0.00;;;;;25.20;36.07;101460.59;5075827;27;45288;-68
2021/10/01 06:27:52;;;;;;;;;0.67;0.00;;;;;25.18;36.21;101458.13;5075812;27;45580;-67
2021/10/01 06:30:18;;;;;;;;;0.00;0.00;;;;;25.19;36.50;101458.94;5076119;27;45432;-68
2021/10/01 06:32:44;;;;;;;;;0.00;0.00;;;;;25.18;36.67;101454.66;5077937;27;45355;-67
2021/10/01 06:35:10;;;;;;;;;0.00;0.00;;;;;25.16;36.33;101448.69;5072187;27;46306;-68
2021/10/01 06:37:35;;;;;;;;;0.00;0.00;;;;;25.17;36.83;101439.66;5069685;28;45580;-68
2021/10/01 06:40:01;;;;;;;;;1.75;1.75;;;;;25.19;36.79;101440.28;5075494;27;45610;-67
2021/10/01 06:42:26;;;;;;;;;2.00;1.00;;;;;25.20;36.67;101438.47;5075314;27;45417;-68
2021/10/01 06:44:54;;;;;;;;;3.00;1.00;;;;;25.18;36.67;101428.84;5075766;28;46307;-68
2021/10/01 06:47:47;;;;;;;;;0.33;0.33;;;;;25.19;36.74;101440.28;5076702;27;45358;-68
2021/10/01 08:19:52;;;;;;;;;0.00;0.00;;;;;25.31;37.04;101390.06;5073812;28;45482;-66
2021/10/01 08:22:17;;;;;;;;;0.50;0.25;;;;;25.25;36.88;101383.63;5073428;27;45281;-66
2021/10/01 08:24:43;;;;;;;;;0.33;0.00;;;;;25.32;37.12;101388.22;5073855;27;45439;-66
2021/10/01 08:27:09;;;;;;;;;0.00;0.00;;;;;25.30;37.05;101385.72;5074097;27;45426;-66
2021/10/01 08:29:34;;;;;;;;;3.00;0.67;;;;;25.28;37.08;101385.94;5075741;28;45322;-66
2021/10/01 08:32:01;;;;;;;;;0.00;0.00;;;;;25.30;36.92;101385.72;5070404;28;45443;-66
2021/10/01 08:34:31;;;;;;;;;2.00;0.00;;;;;25.34;36.96;101387.00;5073571;27;45362;-67
2021/10/01 08:36:58;;;;;;;;;1.00;1.00;;;;;25.36;37.16;101389.47;5073810;27;45311;-66
2021/10/01 08:39:24;;;;;;;;;1.00;1.00;;;;;25.36;36.92;101390.31;5073658;27;45513;-66
2021/10/01 08:41:51;;;;;;;;;0.00;0.00;;;;;25.37;36.71;101386.63;5073200;27;47708;-66
2021/10/01 08:44:18;;;;;;;;;1.00;1.00;;;;;25.38;36.90;101390.09;5057210;28;45358;-66
2021/10/01 08:46:49;;;;;;;;;0.00;0.00;;;;;25.38;36.65;101393.59;5067851;28;45523;-66
2021/10/01 08:49:15;;;;;;;;;1.00;1.00;;;;;25.37;36.72;101377.81;5065327;27;46923;-66
2021/10/01 08:51:42;;;;;;;;;0.00;0.00;;;;;25.40;36.79;101382.75;5057031;28;45897;-66
2021/10/01 08:54:07;;;;;;;;;0.00;0.00;;;;;25.38;36.88;101377.63;5056816;28;45378;-66
2021/10/01 08:56:34;;;;;;;;;0.00;0.00;;;;;25.44;37.14;101376.03;5055920;27;45508;-66
2021/10/01 08:59:00;;;;;;;;;0.00;0.00;;;;;25.45;36.79;101383.00;5057339;28;45449;-66
2021/10/01 09:01:25;;;;;;;;;0.00;0.00;;;;;25.45;36.96;101383.00;5056405;28;45300;-66
2021/10/01 09:03:51;;;;;;;;;1.00;1.00;;;;;25.47;36.94;101388.16;5057465;28;45342;-65
2021/10/01 09:06:18;;;;;;;;;0.50;0.00;;;;;25.48;36.93;101384.47;5057485;28;45294;-66
2021/10/01 09:08:54;;;;;;;;;2.00;2.00;;;;;25.48;37.07;101382.63;5055273;28;45509;-66
2021/10/01 09:11:36;;;;;;;;;0.00;0.00;;;;;25.48;36.73;101371.13;5056286;28;46383;-66
2021/10/01 09:14:10;;;;;;;;;0.00;0.00;;;;;25.48;37.27;101365.81;5056474;28;46557;-66
2021/10/01 09:16:38;;;;;;;;;0.00;0.00;;;;;25.48;36.72;101352.50;5057178;28;45464;-66
2021/10/01 09:19:05;;;;;;;;;2.50;1.00;;;;;25.47;36.88;101350.84;5057324;28;45434;-66
2021/10/01 09:21:45;;;;;;;;;0.67;0.67;;;;;25.48;37.07;101355.16;5057858;28;46433;-66
2021/10/01 09:24:13;;;;;;;;;0.33;0.33;;;;;25.45;37.06;101344.91;5056054;28;45292;-66
2021/10/01 09:26:54;;;;;;;;;1.00;1.00;;;;;25.48;37.00;101355.97;5091127;27;45382;-66
2021/10/01 09:29:31;;;;;;;;;2.00;1.00;;;;;25.48;37.11;101350.66;5074115;28;45504;-66
2021/10/01 09:32:00;;;;;;;;;1.00;1.00;;;;;25.48;37.14;101352.50;5072429;27;46353;-66
2021/10/01 09:34:25;;;;;;;;;0.00;0.00;;;;;25.47;37.05;101345.53;5072799;27;45450;-66
2021/10/01 09:37:06;;;;;;;;;2.00;0.67;;;;;25.47;36.94;101348.19;5072807;28;45496;-66
2021/10/01 09:39:40;;;;;;;;;0.33;0.33;;;;;25.46;36.92;101346.53;5072984;27;45569;-65
2021/10/01 09:42:12;;;;;;;;;1.00;1.00;;;;;25.45;36.95;101339.56;5072513;27;46120;-66
2021/10/01 09:44:46;;;;;;;;;0.00;0.00;;;;;25.42;36.88;101332.78;5076812;28;45366;-65
2021/10/01 09:47:12;;;;;;;;;0.00;0.00;;;;;25.42;37.17;101337.28;5076466;28;45405;-66
2021/10/01 09:49:37;;;;;;;;;1.00;0.00;;;;;25.40;37.00;101338.28;5074395;27;45366;-66
2021/10/01 09:52:04;;;;;;;;;0.00;0.00;;;;;25.40;37.03;101340.97;5075282;27;47012;-66
2021/10/01 09:54:30;;;;;;;;;1.00;0.00;;;;;25.40;36.68;101354.28;5076212;28;45485;-66
2021/10/01 09:57:01;;;;;;;;;1.00;1.00;;;;;25.39;37.02;101349.16;5076597;27;45326;-66
2021/10/01 09:59:27;;;;;;;;;0.67;0.00;;;;;25.33;36.86;101339.25;5075709;28;45303;-66
2021/10/01 10:02:04;;;;;;;;;0.50;0.50;;;;;25.39;37.24;101360.63;5073833;27;46136;-66
2021/10/01 10:04:32;;;;;;;;;2.67;0.00;;;;;25.33;37.33;101352.56;5075730;27;45460;-66
2021/10/01 10:07:08;;;;;;;;;3.00;0.00;;;;;25.38;37.28;101360.81;5075801;27;45524;-66
2021/10/01 10:09:37;;;;;;;;;0.00;0.00;;;;;25.35;37.10;101355.84;5076236;27;45437;-67
2021/10/01 10:12:02;;;;;;;;;1.00;1.00;;;;;25.38;37.31;101350.16;5074955;27;46466;-67
2021/10/01 10:14:32;;;;;;;;;0.00;0.00;;;;;25.33;37.33;101347.25;5077432;28;45536;-66
2021/10/01 10:16:58;;;;;;;;;1.33;0.67;;;;;25.37;37.04;101349.31;5075770;27;45414;-66
2021/10/01 10:19:24;;;;;;;;;0.67;0.67;;;;;25.37;37.46;101349.31;5075816;27;49281;-66
2021/10/01 10:21:50;;;;;;;;;0.67;0.67;;;;;25.36;37.31;101347.69;5075210;27;47020;-66
2021/10/01 10:24:16;;;;;;;;;0.67;0.00;;;;;25.37;37.42;101349.31;5075908;27;45406;-66
2021/10/01 10:26:42;;;;;;;;;1.25;0.00;;;;;25.36;37.13;101347.69;5076222;27;45524;-66
2021/10/01 10:29:11;;;;;;;;;0.00;0.00;;;;;25.36;37.23;101344.19;5062773;28;45377;-66
2021/10/01 10:31:40;;;;;;;;;2.00;1.00;;;;;25.35;37.08;101339.88;5061974;28;47127;-66
2021/10/01 10:34:19;;;;;;;;;2.67;0.00;;;;;25.35;37.40;101332.72;5063015;28;45471;-66
2021/10/01 10:36:47;;;;;;;;;0.00;0.00;;;;;25.34;37.38;101333.75;5062650;28;45461;-65
2021/10/01 10:39:14;;;;;;;;;0.00;0.00;;;;;25.34;37.04;101327.59;5058317;28;45296;-66
2021/10/01 10:42:11;;;;;;;;;0.33;0.00;;;;;25.33;37.32;101331.25;5060984;27;47067;-66
2021/10/01 10:44:51;;;;;;;;;2.00;0.00;;;;;25.33;37.19;101324.09;5070515;27;45792;-66
2021/10/01 10:47:38;;;;;;;;;1.00;0.00;;;;;25.32;37.29;101317.09;5076397;27;45361;-66
2021/10/01 10:50:22;;;;;;;;;0.67;0.33;;;;;25.32;37.34;101303.00;5076186;27;45579;-66
2021/10/01 10:53:25;;;;;;;;;0.00;0.00;;;;;25.32;37.49;101301.13;5074786;27;46151;-66
2021/10/01 10:55:56;;;;;;;;;0.00;0.00;;;;;25.31;37.70;101294.19;4985762;28;45511;-66
2021/10/01 10:58:25;;;;;;;;;1.00;1.00;;;;;25.30;38.02;101300.50;4986527;28;45601;-67
2021/10/01 11:00:56;;;;;;;;;1.00;0.00;;;;;25.31;37.49;101293.34;4987249;28;45549;-66
2021/10/01 11:03:35;;;;;;;;;0.00;0.00;;;;;25.28;37.49;101294.56;4989173;28;46390;-66
2021/10/01 11:06:18;;;;;;;;;0.00;0.00;;;;;25.30;37.60;101287.19;4989741;28;45618;-67
2021/10/01 11:09:13;;;;;;;;;0.00;0.00;;;;;25.30;37.87;101289.84;4988766;28;45313;-66
2021/10/01 11:11:45;;;;;;;;;0.00;0.00;;;;;25.31;37.79;101288.03;4991202;28;45456;-65
2021/10/01 11:14:23;;;;;;;;;0.00;0.00;;;;;25.30;38.16;101297.84;4985362;28;47096;-66
2021/10/01 11:16:54;;;;;;;;;0.00;0.00;;;;;25.31;38.07;101293.34;4987987;28;45477;-66
2021/10/01 11:19:44;;;;;;;;;1.00;1.00;;;;;25.32;38.29;101301.13;4990027;28;45813;-66
2021/10/01 11:22:28;;;;;;;;;0.00;0.00;;;;;25.32;38.13;101293.13;4992146;28;45345;-66
2021/10/01 11:24:57;;;;;;;;;0.00;0.00;;;;;25.31;38.14;101291.50;4991063;28;45827;-66
2021/10/01 11:27:23;;;;;;;;;2.00;1.00;;;;;25.35;38.20;101289.28;4991301;28;45404;-66
2021/10/01 11:29:48;;;;;;;;;0.00;0.00;;;;;25.35;38.35;101290.09;4991361;28;45657;-66
2021/10/01 11:32:23;;;;;;;;;0.33;0.33;;;;;25.35;38.17;101284.78;5057336;27;45489;-66
2021/10/01 11:34:59;;;;;;;;;0.67;0.67;;;;;25.37;38.12;101280.06;5071711;27;46011;-66
2021/10/01 11:37:39;;;;;;;;;0.25;0.25;;;;;25.37;38.32;101281.94;5075507;27;45305;-66
2021/10/01 11:40:26;;;;;;;;;0.00;0.00;;;;;25.37;38.13;101279.28;5072791;27;45433;-66
2021/10/01 11:42:57;;;;;;;;;0.00;0.00;;;;;25.31;38.13;101264.06;5074471;28;45493;-67
2021/10/01 11:45:26;;;;;;;;;0.00;0.00;;;;;25.31;38.41;101272.03;5072235;28;46497;-67
2021/10/01 11:47:54;;;;;;;;;0.33;0.00;;;;;25.35;38.29;101271.47;5074993;28;45272;-67
2021/10/01 11:50:29;;;;;;;;;0.00;0.00;;;;;25.34;38.42;101280.47;5074294;27;45268;-67
2021/10/01 11:52:58;;;;;;;;;0.00;0.00;;;;;25.34;38.55;101283.16;5069083;27;45420;-67
2021/10/01 11:55:24;;;;;;;;;1.67;0.00;;;;;25.33;38.44;101285.97;5069215;28;46268;-67
2021/10/01 11:57:50;;;;;;;;;0.00;0.00;;;;;25.33;38.39;101278.00;5059555;28;45439;-68
2021/10/01 12:00:22;;;;;;;;;0.00;0.00;;;;;25.32;38.58;101271.84;5075224;28;45603;-68
2021/10/01 12:02:49;;;;;;;;;0.33;0.33;;;;;25.34;38.27;101275.16;5072197;28;45336;-67
2021/10/01 12:05:30;;;;;;;;;0.00;0.00;;;;;25.35;38.26;101281.28;5061034;28;45340;-67
2021/10/01 12:08:04;;;;;;;;;0.00;0.00;;;;;25.33;38.37;101267.34;5060179;28;45396;-68
2021/10/01 12:10:32;;;;;;;;;0.00;0.00;;;;;25.34;38.33;101266.34;5061634;28;45666;-67
2021/10/01 12:13:17;;;;;;;;;0.00;0.00;;;;;25.32;38.37;101268.38;5061486;28;45504;-68
2021/10/01 12:16:05;;;;;;;;;2.00;1.00;;;;;25.32;38.33;101269.16;5060600;28;46419;-67
2021/10/01 12:18:38;;;;;;;;;0.25;0.00;;;;;25.32;38.29;101268.38;5057948;28;45509;-68
2021/10/01 12:21:17;;;;;;;;;0.00;0.00;;;;;25.29;38.41;101273.03;5072703;28;45370;-68
2021/10/01 12:24:01;;;;;;;;;1.00;0.00;;;;;25.29;38.15;101273.03;5071566;28;45343;-68
2021/10/01 12:26:28;;;;;;;;;0.00;0.00;;;;;25.29;38.35;101278.38;5073710;28;45456;-68
2021/10/01 12:28:56;;;;;;;;;1.00;0.00;;;;;25.29;38.50;101274.91;5073733;27;45512;-67
2021/10/01 12:31:23;;;;;;;;;0.00;0.00;;;;;25.29;38.30;101264.25;5073801;27;45563;-68
2021/10/01 12:33:49;;;;;;;;;0.67;0.00;;;;;25.29;38.33;101267.72;5073907;28;45588;-68
2021/10/01 12:36:17;;;;;;;;;1.25;0.00;;;;;25.29;38.43;101259.72;5072393;27;46284;-67
2021/10/01 12:38:43;;;;;;;;;0.00;0.00;;;;;25.26;38.37;101249.47;5071234;28;45426;-67
2021/10/01 12:41:12;;;;;;;;;0.25;0.00;;;;;25.20;38.49;101242.25;5073494;27;45417;-68
2021/10/01 12:43:58;;;;;;;;;0.00;0.00;;;;;25.30;38.16;101241.91;5073638;27;45516;-68
2021/10/01 12:46:43;;;;;;;;;1.00;1.00;;;;;25.31;38.29;101237.41;5073460;27;45917;-67
2021/10/01 12:49:26;;;;;;;;;0.00;0.00;;;;;25.30;38.34;101220.59;5073432;27;45389;-67
2021/10/01 12:51:58;;;;;;;;;1.33;1.33;;;;;25.30;38.34;101220.59;5073246;28;45486;-68
2021/10/01 12:54:27;;;;;;;;;1.75;0.00;;;;;25.21;38.28;101206.63;5073746;27;45647;-67
2021/10/01 12:57:17;;;;;;;;;1.00;1.00;;;;;25.29;38.57;101217.13;5074530;27;45540;-68
2021/10/01 13:00:05;;;;;;;;;1.00;1.00;;;;;25.30;38.62;101217.94;5070694;28;45441;-67
2021/10/01 13:02:40;;;;;;;;;1.00;1.00;;;;;25.29;38.72;101211.00;5065215;28;45391;-68
2021/10/01 13:05:26;;;;;;;;;1.00;0.00;;;;;25.29;38.52;101213.66;5071801;27;45297;-67
2021/10/01 13:07:51;;;;;;;;;2.00;0.00;;;;;25.28;38.39;101210.16;5072121;28;47108;-68